sensor_id;sensor_type;location;lat;lon;timestamp;P1;durP1;ratioP1;P2;durP2;ratioP2
70106;SDS011;57473;37.508;15.080;2022-10-18T00:00:53;15.30;;;9.63;;
70106;SDS011;57473;37.508;15.080;2022-10-18T00:03:20;15.98;;;9.55;;
70106;SDS011;57473;37.508;15.080;2022-10-18T00:05:48;17.38;;;10.18;;
70106;SDS011;57473;37.508;15.080;2022-10-18T00:08:16;15.02;;;9.55;;
70106;SDS011;57473;37.508;15.080;2022-10-18T00:10:45;16.50;;;9.65;;
70106;SDS011;57473;37.508;15.080;2022-10-18T00:13:13;18.13;;;10.32;;
70106;SDS011;57473;37.508;15.080;2022-10-18T00:15:46;13.77;;;9.85;;
70106;SDS011;57473;37.508;15.080;2022-10-18T00:18:17;16.55;;;9.85;;
70106;SDS011;57473;37.508;15.080;2022-10-18T00:20:45;15.57;;;9.52;;
70106;SDS011;57473;37.508;15.080;2022-10-18T00:23:21;16.38;;;9.63;;
70106;SDS011;57473;37.508;15.080;2022-10-18T00:25:48;14.63;;;9.45;;
70106;SDS011;57473;37.508;15.080;2022-10-18T00:28:28;15.45;;;9.93;;
70106;SDS011;57473;37.508;15.080;2022-10-18T00:30:55;16.90;;;10.30;;
70106;SDS011;57473;37.508;15.080;2022-10-18T00:33:23;16.50;;;9.93;;
70106;SDS011;57473;37.508;15.080;2022-10-18T00:35:51;15.73;;;10.00;;
70106;SDS011;57473;37.508;15.080;2022-10-18T00:38:18;17.05;;;9.98;;
70106;SDS011;57473;37.508;15.080;2022-10-18T00:40:45;17.38;;;9.88;;
70106;SDS011;57473;37.508;15.080;2022-10-18T00:43:14;18.45;;;10.40;;
70106;SDS011;57473;37.508;15.080;2022-10-18T00:45:43;16.88;;;9.93;;
70106;SDS011;57473;37.508;15.080;2022-10-18T00:48:12;15.45;;;9.93;;
70106;SDS011;57473;37.508;15.080;2022-10-18T00:50:42;15.52;;;9.57;;
70106;SDS011;57473;37.508;15.080;2022-10-18T00:53:18;13.80;;;9.25;;
70106;SDS011;57473;37.508;15.080;2022-10-18T00:55:49;15.52;;;9.60;;
70106;SDS011;57473;37.508;15.080;2022-10-18T00:58:16;14.63;;;9.40;;
70106;SDS011;57473;37.508;15.080;2022-10-18T01:00:45;17.33;;;10.23;;
70106;SDS011;57473;37.508;15.080;2022-10-18T01:03:12;15.52;;;10.15;;
70106;SDS011;57473;37.508;15.080;2022-10-18T01:05:41;14.98;;;10.02;;
70106;SDS011;57473;37.508;15.080;2022-10-18T01:11:16;17.35;;;10.25;;
70106;SDS011;57473;37.508;15.080;2022-10-18T01:14:24;16.23;;;9.88;;
70106;SDS011;57473;37.508;15.080;2022-10-18T01:17:00;16.13;;;9.95;;
70106;SDS011;57473;37.508;15.080;2022-10-18T01:22:59;17.20;;;9.85;;
70106;SDS011;57473;37.508;15.080;2022-10-18T01:25:34;18.85;;;10.52;;
70106;SDS011;57473;37.508;15.080;2022-10-18T01:30:46;15.50;;;9.77;;
70106;SDS011;57473;37.508;15.080;2022-10-18T01:36:34;17.00;;;10.68;;
70106;SDS011;57473;37.508;15.080;2022-10-18T01:39:05;16.40;;;10.13;;
70106;SDS011;57473;37.508;15.080;2022-10-18T01:41:37;16.77;;;10.18;;
70106;SDS011;57473;37.508;15.080;2022-10-18T01:44:08;16.77;;;10.00;;
70106;SDS011;57473;37.508;15.080;2022-10-18T01:46:38;17.95;;;10.85;;
70106;SDS011;57473;37.508;15.080;2022-10-18T01:49:07;16.98;;;10.27;;
70106;SDS011;57473;37.508;15.080;2022-10-18T01:51:35;16.65;;;10.63;;
70106;SDS011;57473;37.508;15.080;2022-10-18T01:54:02;18.20;;;10.25;;
70106;SDS011;57473;37.508;15.080;2022-10-18T02:01:58;16.35;;;9.98;;
70106;SDS011;57473;37.508;15.080;2022-10-18T02:07:08;17.98;;;11.00;;
70106;SDS011;57473;37.508;15.080;2022-10-18T02:09:47;17.00;;;10.57;;
70106;SDS011;57473;37.508;15.080;2022-10-18T02:12:23;18.00;;;10.75;;
70106;SDS011;57473;37.508;15.080;2022-10-18T02:14:51;19.20;;;10.20;;
70106;SDS011;57473;37.508;15.080;2022-10-18T02:17:19;16.40;;;10.15;;
70106;SDS011;57473;37.508;15.080;2022-10-18T02:19:49;16.60;;;9.95;;
70106;SDS011;57473;37.508;15.080;2022-10-18T02:22:19;18.73;;;11.05;;
70106;SDS011;57473;37.508;15.080;2022-10-18T02:24:52;18.20;;;10.95;;
70106;SDS011;57473;37.508;15.080;2022-10-18T02:27:21;17.85;;;10.70;;
70106;SDS011;57473;37.508;15.080;2022-10-18T02:29:49;17.92;;;11.38;;
70106;SDS011;57473;37.508;15.080;2022-10-18T02:32:24;17.10;;;11.15;;
70106;SDS011;57473;37.508;15.080;2022-10-18T02:35:25;19.92;;;10.80;;
70106;SDS011;57473;37.508;15.080;2022-10-18T02:37:56;16.75;;;10.40;;
70106;SDS011;57473;37.508;15.080;2022-10-18T02:40:25;19.50;;;10.85;;
70106;SDS011;57473;37.508;15.080;2022-10-18T02:42:54;19.13;;;10.93;;
70106;SDS011;57473;37.508;15.080;2022-10-18T02:45:23;20.30;;;10.13;;
70106;SDS011;57473;37.508;15.080;2022-10-18T02:47:51;18.08;;;10.18;;
70106;SDS011;57473;37.508;15.080;2022-10-18T02:50:18;19.80;;;10.50;;
70106;SDS011;57473;37.508;15.080;2022-10-18T02:52:45;14.65;;;9.45;;
70106;SDS011;57473;37.508;15.080;2022-10-18T02:55:12;15.18;;;9.05;;
70106;SDS011;57473;37.508;15.080;2022-10-18T02:57:40;12.15;;;8.07;;
70106;SDS011;57473;37.508;15.080;2022-10-18T03:00:07;12.75;;;8.13;;
70106;SDS011;57473;37.508;15.080;2022-10-18T03:02:35;12.88;;;8.57;;
70106;SDS011;57473;37.508;15.080;2022-10-18T03:05:02;13.35;;;8.57;;
70106;SDS011;57473;37.508;15.080;2022-10-18T03:07:29;11.27;;;7.60;;
70106;SDS011;57473;37.508;15.080;2022-10-18T03:09:57;12.98;;;8.35;;
70106;SDS011;57473;37.508;15.080;2022-10-18T03:12:24;12.60;;;8.43;;
70106;SDS011;57473;37.508;15.080;2022-10-18T03:14:51;13.00;;;7.63;;
70106;SDS011;57473;37.508;15.080;2022-10-18T03:17:18;12.20;;;7.75;;
70106;SDS011;57473;37.508;15.080;2022-10-18T03:19:46;12.23;;;7.72;;
70106;SDS011;57473;37.508;15.080;2022-10-18T03:22:13;12.15;;;8.23;;
70106;SDS011;57473;37.508;15.080;2022-10-18T03:24:40;12.93;;;7.70;;
70106;SDS011;57473;37.508;15.080;2022-10-18T03:27:07;12.48;;;7.70;;
70106;SDS011;57473;37.508;15.080;2022-10-18T03:29:34;12.20;;;7.43;;
70106;SDS011;57473;37.508;15.080;2022-10-18T03:32:01;14.52;;;8.20;;
70106;SDS011;57473;37.508;15.080;2022-10-18T03:34:28;11.27;;;7.03;;
70106;SDS011;57473;37.508;15.080;2022-10-18T03:36:57;12.48;;;7.05;;
70106;SDS011;57473;37.508;15.080;2022-10-18T03:39:30;10.32;;;6.88;;
70106;SDS011;57473;37.508;15.080;2022-10-18T03:41:57;11.88;;;7.22;;
70106;SDS011;57473;37.508;15.080;2022-10-18T03:44:24;11.10;;;7.38;;
70106;SDS011;57473;37.508;15.080;2022-10-18T03:46:51;11.68;;;7.38;;
70106;SDS011;57473;37.508;15.080;2022-10-18T03:49:18;11.63;;;6.95;;
70106;SDS011;57473;37.508;15.080;2022-10-18T03:51:45;10.55;;;6.45;;
70106;SDS011;57473;37.508;15.080;2022-10-18T03:54:12;12.98;;;7.00;;
70106;SDS011;57473;37.508;15.080;2022-10-18T03:56:40;12.32;;;7.35;;
70106;SDS011;57473;37.508;15.080;2022-10-18T03:59:08;12.00;;;8.07;;
70106;SDS011;57473;37.508;15.080;2022-10-18T04:01:36;11.27;;;7.40;;
70106;SDS011;57473;37.508;15.080;2022-10-18T04:04:03;9.27;;;6.38;;
70106;SDS011;57473;37.508;15.080;2022-10-18T04:06:30;10.88;;;6.63;;
70106;SDS011;57473;37.508;15.080;2022-10-18T04:08:57;13.50;;;7.13;;
70106;SDS011;57473;37.508;15.080;2022-10-18T04:11:24;11.80;;;7.38;;
70106;SDS011;57473;37.508;15.080;2022-10-18T04:13:52;10.00;;;6.50;;
70106;SDS011;57473;37.508;15.080;2022-10-18T04:16:19;9.18;;;5.82;;
70106;SDS011;57473;37.508;15.080;2022-10-18T04:18:46;9.23;;;6.43;;
70106;SDS011;57473;37.508;15.080;2022-10-18T04:21:13;9.65;;;6.20;;
70106;SDS011;57473;37.508;15.080;2022-10-18T04:23:40;11.68;;;6.45;;
70106;SDS011;57473;37.508;15.080;2022-10-18T04:26:08;10.88;;;5.90;;
70106;SDS011;57473;37.508;15.080;2022-10-18T04:28:35;12.63;;;5.63;;
70106;SDS011;57473;37.508;15.080;2022-10-18T04:31:05;9.23;;;5.18;;
70106;SDS011;57473;37.508;15.080;2022-10-18T04:33:32;9.25;;;5.55;;
70106;SDS011;57473;37.508;15.080;2022-10-18T04:36:01;10.98;;;5.57;;
70106;SDS011;57473;37.508;15.080;2022-10-18T04:38:28;10.05;;;5.25;;
70106;SDS011;57473;37.508;15.080;2022-10-18T04:40:55;9.85;;;5.25;;
70106;SDS011;57473;37.508;15.080;2022-10-18T04:43:23;8.40;;;5.00;;
70106;SDS011;57473;37.508;15.080;2022-10-18T04:45:50;8.65;;;4.82;;
70106;SDS011;57473;37.508;15.080;2022-10-18T04:48:17;9.80;;;4.97;;
70106;SDS011;57473;37.508;15.080;2022-10-18T04:50:48;11.82;;;6.32;;
70106;SDS011;57473;37.508;15.080;2022-10-18T04:53:16;10.07;;;5.40;;
70106;SDS011;57473;37.508;15.080;2022-10-18T04:55:44;9.95;;;5.15;;
70106;SDS011;57473;37.508;15.080;2022-10-18T04:58:13;9.23;;;5.15;;
70106;SDS011;57473;37.508;15.080;2022-10-18T05:00:41;8.73;;;5.30;;
70106;SDS011;57473;37.508;15.080;2022-10-18T05:03:09;9.70;;;5.20;;
70106;SDS011;57473;37.508;15.080;2022-10-18T05:05:38;9.38;;;5.10;;
70106;SDS011;57473;37.508;15.080;2022-10-18T05:08:26;10.93;;;5.70;;
70106;SDS011;57473;37.508;15.080;2022-10-18T05:10:54;9.38;;;5.60;;
70106;SDS011;57473;37.508;15.080;2022-10-18T05:13:21;11.25;;;5.85;;
70106;SDS011;57473;37.508;15.080;2022-10-18T05:15:48;19.02;;;8.90;;
70106;SDS011;57473;37.508;15.080;2022-10-18T05:18:15;9.30;;;5.53;;
70106;SDS011;57473;37.508;15.080;2022-10-18T05:20:43;12.20;;;6.25;;
70106;SDS011;57473;37.508;15.080;2022-10-18T05:23:11;11.38;;;6.03;;
70106;SDS011;57473;37.508;15.080;2022-10-18T05:25:39;11.43;;;6.30;;
70106;SDS011;57473;37.508;15.080;2022-10-18T05:28:07;11.68;;;6.25;;
70106;SDS011;57473;37.508;15.080;2022-10-18T05:30:58;9.32;;;6.22;;
70106;SDS011;57473;37.508;15.080;2022-10-18T05:33:30;11.63;;;5.80;;
70106;SDS011;57473;37.508;15.080;2022-10-18T05:35:58;10.20;;;6.13;;
70106;SDS011;57473;37.508;15.080;2022-10-18T05:38:26;13.70;;;6.50;;
70106;SDS011;57473;37.508;15.080;2022-10-18T05:40:57;9.98;;;5.90;;
70106;SDS011;57473;37.508;15.080;2022-10-18T05:43:29;23.02;;;7.60;;
70106;SDS011;57473;37.508;15.080;2022-10-18T05:45:57;10.23;;;6.50;;
70106;SDS011;57473;37.508;15.080;2022-10-18T05:48:24;10.70;;;7.07;;
70106;SDS011;57473;37.508;15.080;2022-10-18T05:50:52;11.93;;;6.60;;
70106;SDS011;57473;37.508;15.080;2022-10-18T05:53:19;13.65;;;8.52;;
70106;SDS011;57473;37.508;15.080;2022-10-18T05:56:04;12.02;;;6.95;;
70106;SDS011;57473;37.508;15.080;2022-10-18T05:58:32;38.90;;;27.25;;
70106;SDS011;57473;37.508;15.080;2022-10-18T06:01:00;15.30;;;8.95;;
70106;SDS011;57473;37.508;15.080;2022-10-18T06:03:29;12.82;;;6.80;;
70106;SDS011;57473;37.508;15.080;2022-10-18T06:06:03;14.07;;;7.20;;
70106;SDS011;57473;37.508;15.080;2022-10-18T06:08:33;18.23;;;8.90;;
70106;SDS011;57473;37.508;15.080;2022-10-18T06:11:09;12.88;;;7.10;;
70106;SDS011;57473;37.508;15.080;2022-10-18T06:13:38;14.48;;;7.45;;
70106;SDS011;57473;37.508;15.080;2022-10-18T06:18:42;14.90;;;7.97;;
70106;SDS011;57473;37.508;15.080;2022-10-18T06:21:13;20.75;;;9.05;;
70106;SDS011;57473;37.508;15.080;2022-10-18T06:23:40;15.20;;;8.05;;
70106;SDS011;57473;37.508;15.080;2022-10-18T06:26:09;12.05;;;7.43;;
70106;SDS011;57473;37.508;15.080;2022-10-18T06:28:37;14.43;;;7.82;;
70106;SDS011;57473;37.508;15.080;2022-10-18T06:31:04;13.43;;;8.65;;
70106;SDS011;57473;37.508;15.080;2022-10-18T06:33:33;13.25;;;7.90;;
70106;SDS011;57473;37.508;15.080;2022-10-18T06:38:35;15.30;;;7.70;;
70106;SDS011;57473;37.508;15.080;2022-10-18T06:41:04;17.23;;;7.85;;
70106;SDS011;57473;37.508;15.080;2022-10-18T06:43:32;17.38;;;8.05;;
70106;SDS011;57473;37.508;15.080;2022-10-18T06:46:01;11.98;;;7.38;;
70106;SDS011;57473;37.508;15.080;2022-10-18T06:48:31;12.88;;;7.30;;
70106;SDS011;57473;37.508;15.080;2022-10-18T06:51:00;14.32;;;8.05;;
70106;SDS011;57473;37.508;15.080;2022-10-18T06:53:34;11.95;;;7.05;;
70106;SDS011;57473;37.508;15.080;2022-10-18T06:56:18;14.95;;;9.07;;
70106;SDS011;57473;37.508;15.080;2022-10-18T06:58:46;15.48;;;8.60;;
70106;SDS011;57473;37.508;15.080;2022-10-18T07:01:14;15.00;;;8.43;;
70106;SDS011;57473;37.508;15.080;2022-10-18T07:03:43;14.52;;;8.77;;
70106;SDS011;57473;37.508;15.080;2022-10-18T07:06:12;23.17;;;10.60;;
70106;SDS011;57473;37.508;15.080;2022-10-18T07:08:40;25.80;;;12.55;;
70106;SDS011;57473;37.508;15.080;2022-10-18T07:11:08;25.08;;;13.60;;
70106;SDS011;57473;37.508;15.080;2022-10-18T07:13:41;26.42;;;13.27;;
70106;SDS011;57473;37.508;15.080;2022-10-18T07:16:10;26.58;;;14.77;;
70106;SDS011;57473;37.508;15.080;2022-10-18T07:18:45;21.80;;;12.20;;
70106;SDS011;57473;37.508;15.080;2022-10-18T07:21:16;22.73;;;11.70;;
70106;SDS011;57473;37.508;15.080;2022-10-18T07:23:48;18.90;;;12.05;;
70106;SDS011;57473;37.508;15.080;2022-10-18T07:26:20;20.80;;;11.90;;
70106;SDS011;57473;37.508;15.080;2022-10-18T07:28:55;22.10;;;12.70;;
70106;SDS011;57473;37.508;15.080;2022-10-18T07:31:25;21.48;;;12.38;;
70106;SDS011;57473;37.508;15.080;2022-10-18T07:33:52;27.60;;;15.75;;
70106;SDS011;57473;37.508;15.080;2022-10-18T07:36:21;23.10;;;14.57;;
70106;SDS011;57473;37.508;15.080;2022-10-18T07:38:48;23.27;;;13.40;;
70106;SDS011;57473;37.508;15.080;2022-10-18T07:41:17;18.50;;;11.70;;
70106;SDS011;57473;37.508;15.080;2022-10-18T07:43:46;20.65;;;12.48;;
70106;SDS011;57473;37.508;15.080;2022-10-18T07:46:16;19.77;;;11.20;;
70106;SDS011;57473;37.508;15.080;2022-10-18T07:48:46;19.73;;;10.90;;
70106;SDS011;57473;37.508;15.080;2022-10-18T07:51:14;16.25;;;11.05;;
70106;SDS011;57473;37.508;15.080;2022-10-18T07:53:42;20.15;;;11.35;;
70106;SDS011;57473;37.508;15.080;2022-10-18T07:56:13;25.75;;;11.02;;
70106;SDS011;57473;37.508;15.080;2022-10-18T07:58:43;15.13;;;9.63;;
70106;SDS011;57473;37.508;15.080;2022-10-18T08:01:11;20.65;;;10.88;;
70106;SDS011;57473;37.508;15.080;2022-10-18T08:03:40;15.75;;;10.50;;
70106;SDS011;57473;37.508;15.080;2022-10-18T08:06:09;21.70;;;10.53;;
70106;SDS011;57473;37.508;15.080;2022-10-18T08:08:38;20.60;;;10.00;;
70106;SDS011;57473;37.508;15.080;2022-10-18T08:11:11;19.80;;;11.57;;
70106;SDS011;57473;37.508;15.080;2022-10-18T08:13:40;21.27;;;10.47;;
70106;SDS011;57473;37.508;15.080;2022-10-18T08:16:10;17.98;;;10.10;;
70106;SDS011;57473;37.508;15.080;2022-10-18T08:18:39;16.17;;;9.80;;
70106;SDS011;57473;37.508;15.080;2022-10-18T08:21:20;18.43;;;10.90;;
70106;SDS011;57473;37.508;15.080;2022-10-18T08:23:49;19.02;;;10.95;;
70106;SDS011;57473;37.508;15.080;2022-10-18T08:26:20;13.95;;;9.48;;
70106;SDS011;57473;37.508;15.080;2022-10-18T08:28:48;16.27;;;9.30;;
70106;SDS011;57473;37.508;15.080;2022-10-18T08:31:38;13.52;;;8.73;;
70106;SDS011;57473;37.508;15.080;2022-10-18T08:34:06;15.10;;;8.70;;
70106;SDS011;57473;37.508;15.080;2022-10-18T08:36:33;13.93;;;8.93;;
70106;SDS011;57473;37.508;15.080;2022-10-18T08:39:02;13.18;;;9.27;;
70106;SDS011;57473;37.508;15.080;2022-10-18T08:44:51;15.57;;;8.68;;
70106;SDS011;57473;37.508;15.080;2022-10-18T08:50:05;16.38;;;8.32;;
70106;SDS011;57473;37.508;15.080;2022-10-18T08:52:50;13.68;;;8.57;;
70106;SDS011;57473;37.508;15.080;2022-10-18T08:58:23;13.20;;;8.32;;
70106;SDS011;57473;37.508;15.080;2022-10-18T09:01:00;13.70;;;8.55;;
70106;SDS011;57473;37.508;15.080;2022-10-18T09:06:39;13.30;;;8.73;;
70106;SDS011;57473;37.508;15.080;2022-10-18T09:09:35;13.93;;;8.85;;
70106;SDS011;57473;37.508;15.080;2022-10-18T09:20:57;13.68;;;8.70;;
70106;SDS011;57473;37.508;15.080;2022-10-18T09:24:26;14.88;;;8.98;;
70106;SDS011;57473;37.508;15.080;2022-10-18T09:27:02;18.10;;;9.13;;
70106;SDS011;57473;37.508;15.080;2022-10-18T09:34:59;16.58;;;9.27;;
70106;SDS011;57473;37.508;15.080;2022-10-18T09:37:37;16.27;;;8.80;;
70106;SDS011;57473;37.508;15.080;2022-10-18T09:40:11;13.50;;;8.30;;
70106;SDS011;57473;37.508;15.080;2022-10-18T09:43:00;14.48;;;9.02;;
70106;SDS011;57473;37.508;15.080;2022-10-18T09:45:34;21.58;;;8.65;;
70106;SDS011;57473;37.508;15.080;2022-10-18T09:56:54;17.50;;;9.43;;
70106;SDS011;57473;37.508;15.080;2022-10-18T10:02:15;15.05;;;8.85;;
70106;SDS011;57473;37.508;15.080;2022-10-18T10:04:50;18.95;;;9.93;;
70106;SDS011;57473;37.508;15.080;2022-10-18T10:07:23;14.98;;;9.32;;
70106;SDS011;57473;37.508;15.080;2022-10-18T10:15:31;15.48;;;9.40;;
70106;SDS011;57473;37.508;15.080;2022-10-18T10:18:16;16.83;;;9.60;;
70106;SDS011;57473;37.508;15.080;2022-10-18T10:20:52;16.08;;;10.25;;
70106;SDS011;57473;37.508;15.080;2022-10-18T10:23:51;14.00;;;9.02;;
70106;SDS011;57473;37.508;15.080;2022-10-18T10:26:26;17.67;;;9.13;;
70106;SDS011;57473;37.508;15.080;2022-10-18T10:28:56;13.70;;;8.50;;
70106;SDS011;57473;37.508;15.080;2022-10-18T10:33:57;12.95;;;8.85;;
70106;SDS011;57473;37.508;15.080;2022-10-18T10:36:28;12.63;;;8.65;;
70106;SDS011;57473;37.508;15.080;2022-10-18T10:41:32;14.23;;;8.88;;
70106;SDS011;57473;37.508;15.080;2022-10-18T10:44:01;16.92;;;9.75;;
70106;SDS011;57473;37.508;15.080;2022-10-18T10:46:33;18.02;;;9.85;;
70106;SDS011;57473;37.508;15.080;2022-10-18T10:49:02;14.85;;;9.38;;
70106;SDS011;57473;37.508;15.080;2022-10-18T10:52:00;15.27;;;9.02;;
70106;SDS011;57473;37.508;15.080;2022-10-18T10:54:47;13.60;;;9.13;;
70106;SDS011;57473;37.508;15.080;2022-10-18T10:57:25;13.60;;;9.30;;
70106;SDS011;57473;37.508;15.080;2022-10-18T10:59:54;14.27;;;8.57;;
70106;SDS011;57473;37.508;15.080;2022-10-18T11:05:15;13.82;;;9.07;;
70106;SDS011;57473;37.508;15.080;2022-10-18T11:07:54;11.88;;;8.77;;
70106;SDS011;57473;37.508;15.080;2022-10-18T11:10:26;12.63;;;7.85;;
70106;SDS011;57473;37.508;15.080;2022-10-18T11:13:04;12.70;;;10.02;;
70106;SDS011;57473;37.508;15.080;2022-10-18T11:15:54;13.50;;;9.07;;
70106;SDS011;57473;37.508;15.080;2022-10-18T11:18:33;25.17;;;17.30;;
70106;SDS011;57473;37.508;15.080;2022-10-18T11:23:39;10.93;;;7.85;;
70106;SDS011;57473;37.508;15.080;2022-10-18T11:28:42;13.25;;;9.63;;
70106;SDS011;57473;37.508;15.080;2022-10-18T11:31:38;12.95;;;9.02;;
70106;SDS011;57473;37.508;15.080;2022-10-18T11:34:24;11.50;;;7.97;;
70106;SDS011;57473;37.508;15.080;2022-10-18T11:37:10;12.63;;;9.10;;
70106;SDS011;57473;37.508;15.080;2022-10-18T11:40:10;12.00;;;9.30;;
70106;SDS011;57473;37.508;15.080;2022-10-18T11:48:28;11.93;;;9.32;;
70106;SDS011;57473;37.508;15.080;2022-10-18T11:51:22;13.20;;;9.75;;
70106;SDS011;57473;37.508;15.080;2022-10-18T11:54:26;15.55;;;10.02;;
70106;SDS011;57473;37.508;15.080;2022-10-18T12:05:39;13.18;;;9.48;;
70106;SDS011;57473;37.508;15.080;2022-10-18T12:08:12;16.52;;;9.88;;
70106;SDS011;57473;37.508;15.080;2022-10-18T12:10:46;13.63;;;9.30;;
70106;SDS011;57473;37.508;15.080;2022-10-18T12:13:45;15.52;;;10.40;;
70106;SDS011;57473;37.508;15.080;2022-10-18T12:16:24;15.75;;;9.93;;
70106;SDS011;57473;37.508;15.080;2022-10-18T12:19:20;11.30;;;9.05;;
70106;SDS011;57473;37.508;15.080;2022-10-18T12:21:54;13.60;;;9.88;;
70106;SDS011;57473;37.508;15.080;2022-10-18T12:24:24;14.73;;;9.48;;
70106;SDS011;57473;37.508;15.080;2022-10-18T12:26:56;16.58;;;10.25;;
70106;SDS011;57473;37.508;15.080;2022-10-18T12:29:31;11.68;;;8.82;;
70106;SDS011;57473;37.508;15.080;2022-10-18T12:32:24;11.30;;;8.30;;
70106;SDS011;57473;37.508;15.080;2022-10-18T12:34:59;14.18;;;8.75;;
70106;SDS011;57473;37.508;15.080;2022-10-18T12:40:33;11.57;;;8.60;;
70106;SDS011;57473;37.508;15.080;2022-10-18T12:43:17;17.77;;;9.90;;
70106;SDS011;57473;37.508;15.080;2022-10-18T12:45:53;14.45;;;9.60;;
70106;SDS011;57473;37.508;15.080;2022-10-18T12:48:30;13.40;;;9.10;;
70106;SDS011;57473;37.508;15.080;2022-10-18T12:50:59;13.07;;;9.10;;
70106;SDS011;57473;37.508;15.080;2022-10-18T12:53:34;15.77;;;10.60;;
70106;SDS011;57473;37.508;15.080;2022-10-18T13:12:47;13.77;;;8.95;;
70106;SDS011;57473;37.508;15.080;2022-10-18T13:15:34;12.98;;;9.70;;
70106;SDS011;57473;37.508;15.080;2022-10-18T13:21:15;15.35;;;9.60;;
70106;SDS011;57473;37.508;15.080;2022-10-18T13:26:57;14.38;;;9.63;;
70106;SDS011;57473;37.508;15.080;2022-10-18T13:30:00;16.23;;;9.88;;
70106;SDS011;57473;37.508;15.080;2022-10-18T13:41:21;13.25;;;9.85;;
70106;SDS011;57473;37.508;15.080;2022-10-18T13:44:25;13.77;;;9.77;;
70106;SDS011;57473;37.508;15.080;2022-10-18T13:49:33;15.43;;;10.52;;
70106;SDS011;57473;37.508;15.080;2022-10-18T14:06:25;14.43;;;9.90;;
70106;SDS011;57473;37.508;15.080;2022-10-18T14:09:02;14.02;;;9.75;;
70106;SDS011;57473;37.508;15.080;2022-10-18T14:12:37;14.65;;;9.05;;
70106;SDS011;57473;37.508;15.080;2022-10-18T14:20:38;14.10;;;9.95;;
70106;SDS011;57473;37.508;15.080;2022-10-18T14:23:35;14.85;;;10.23;;
70106;SDS011;57473;37.508;15.080;2022-10-18T14:26:14;15.70;;;10.13;;
70106;SDS011;57473;37.508;15.080;2022-10-18T14:28:43;13.43;;;9.55;;
70106;SDS011;57473;37.508;15.080;2022-10-18T14:31:26;13.75;;;9.95;;
70106;SDS011;57473;37.508;15.080;2022-10-18T14:33:54;14.75;;;9.60;;
70106;SDS011;57473;37.508;15.080;2022-10-18T14:36:25;14.27;;;9.57;;
70106;SDS011;57473;37.508;15.080;2022-10-18T14:38:56;17.30;;;10.95;;
70106;SDS011;57473;37.508;15.080;2022-10-18T14:49:25;18.65;;;12.15;;
70106;SDS011;57473;37.508;15.080;2022-10-18T14:51:57;17.95;;;11.82;;
70106;SDS011;57473;37.508;15.080;2022-10-18T14:54:29;17.52;;;11.65;;
70106;SDS011;57473;37.508;15.080;2022-10-18T14:57:01;17.63;;;10.05;;
70106;SDS011;57473;37.508;15.080;2022-10-18T14:59:45;16.52;;;11.20;;
70106;SDS011;57473;37.508;15.080;2022-10-18T15:02:24;15.43;;;10.50;;
70106;SDS011;57473;37.508;15.080;2022-10-18T15:04:57;19.67;;;11.45;;
70106;SDS011;57473;37.508;15.080;2022-10-18T15:07:32;16.80;;;11.20;;
70106;SDS011;57473;37.508;15.080;2022-10-18T15:10:01;17.83;;;11.73;;
70106;SDS011;57473;37.508;15.080;2022-10-18T15:12:30;18.52;;;11.90;;
70106;SDS011;57473;37.508;15.080;2022-10-18T15:15:19;16.67;;;11.63;;
70106;SDS011;57473;37.508;15.080;2022-10-18T15:17:49;21.00;;;13.63;;
70106;SDS011;57473;37.508;15.080;2022-10-18T15:23:03;17.30;;;11.73;;
70106;SDS011;57473;37.508;15.080;2022-10-18T15:25:58;20.20;;;12.10;;
70106;SDS011;57473;37.508;15.080;2022-10-18T15:28:34;18.27;;;11.98;;
70106;SDS011;57473;37.508;15.080;2022-10-18T15:31:05;19.92;;;12.95;;
70106;SDS011;57473;37.508;15.080;2022-10-18T15:33:48;17.90;;;11.38;;
70106;SDS011;57473;37.508;15.080;2022-10-18T15:36:19;17.83;;;11.85;;
70106;SDS011;57473;37.508;15.080;2022-10-18T15:38:52;17.27;;;11.70;;
70106;SDS011;57473;37.508;15.080;2022-10-18T15:41:38;17.95;;;11.52;;
70106;SDS011;57473;37.508;15.080;2022-10-18T15:46:53;17.63;;;13.20;;
70106;SDS011;57473;37.508;15.080;2022-10-18T15:58:15;18.85;;;12.48;;
70106;SDS011;57473;37.508;15.080;2022-10-18T16:00:59;21.15;;;12.65;;
70106;SDS011;57473;37.508;15.080;2022-10-18T16:03:32;22.35;;;14.30;;
70106;SDS011;57473;37.508;15.080;2022-10-18T16:06:08;24.25;;;17.00;;
70106;SDS011;57473;37.508;15.080;2022-10-18T16:08:44;17.25;;;11.90;;
70106;SDS011;57473;37.508;15.080;2022-10-18T16:11:20;27.75;;;18.33;;
70106;SDS011;57473;37.508;15.080;2022-10-18T16:13:51;20.15;;;12.65;;
70106;SDS011;57473;37.508;15.080;2022-10-18T16:16:25;20.48;;;13.48;;
70106;SDS011;57473;37.508;15.080;2022-10-18T16:18:55;25.33;;;18.02;;
70106;SDS011;57473;37.508;15.080;2022-10-18T16:21:27;21.38;;;14.90;;
70106;SDS011;57473;37.508;15.080;2022-10-18T16:23:59;19.10;;;11.93;;
70106;SDS011;57473;37.508;15.080;2022-10-18T16:26:27;19.98;;;13.52;;
70106;SDS011;57473;37.508;15.080;2022-10-18T16:28:55;22.98;;;12.88;;
70106;SDS011;57473;37.508;15.080;2022-10-18T16:31:27;18.63;;;12.38;;
70106;SDS011;57473;37.508;15.080;2022-10-18T16:33:59;20.50;;;11.95;;
70106;SDS011;57473;37.508;15.080;2022-10-18T16:36:28;20.23;;;13.45;;
70106;SDS011;57473;37.508;15.080;2022-10-18T16:38:59;18.33;;;11.75;;
70106;SDS011;57473;37.508;15.080;2022-10-18T16:41:29;26.13;;;15.50;;
70106;SDS011;57473;37.508;15.080;2022-10-18T16:43:58;23.58;;;15.50;;
70106;SDS011;57473;37.508;15.080;2022-10-18T16:46:35;25.95;;;16.20;;
70106;SDS011;57473;37.508;15.080;2022-10-18T16:49:04;24.92;;;15.50;;
70106;SDS011;57473;37.508;15.080;2022-10-18T16:51:43;25.35;;;14.80;;
70106;SDS011;57473;37.508;15.080;2022-10-18T16:54:11;20.23;;;12.55;;
70106;SDS011;57473;37.508;15.080;2022-10-18T16:56:39;22.65;;;13.52;;
70106;SDS011;57473;37.508;15.080;2022-10-18T16:59:08;20.98;;;14.27;;
70106;SDS011;57473;37.508;15.080;2022-10-18T17:01:54;20.77;;;14.07;;
70106;SDS011;57473;37.508;15.080;2022-10-18T17:04:21;21.48;;;13.57;;
70106;SDS011;57473;37.508;15.080;2022-10-18T17:06:49;25.20;;;15.75;;
70106;SDS011;57473;37.508;15.080;2022-10-18T17:09:18;40.03;;;30.25;;
70106;SDS011;57473;37.508;15.080;2022-10-18T17:11:46;20.13;;;13.55;;
70106;SDS011;57473;37.508;15.080;2022-10-18T17:14:13;23.55;;;14.43;;
70106;SDS011;57473;37.508;15.080;2022-10-18T17:16:40;18.98;;;12.75;;
70106;SDS011;57473;37.508;15.080;2022-10-18T17:19:13;21.58;;;13.75;;
70106;SDS011;57473;37.508;15.080;2022-10-18T17:21:41;20.05;;;13.85;;
70106;SDS011;57473;37.508;15.080;2022-10-18T17:24:10;22.77;;;14.48;;
70106;SDS011;57473;37.508;15.080;2022-10-18T17:26:38;20.95;;;13.48;;
70106;SDS011;57473;37.508;15.080;2022-10-18T17:29:06;24.20;;;14.35;;
70106;SDS011;57473;37.508;15.080;2022-10-18T17:31:34;24.08;;;15.05;;
70106;SDS011;57473;37.508;15.080;2022-10-18T17:34:01;22.42;;;13.13;;
70106;SDS011;57473;37.508;15.080;2022-10-18T17:36:29;21.13;;;13.52;;
70106;SDS011;57473;37.508;15.080;2022-10-18T17:38:57;26.77;;;15.90;;
70106;SDS011;57473;37.508;15.080;2022-10-18T17:41:27;28.83;;;15.88;;
70106;SDS011;57473;37.508;15.080;2022-10-18T17:44:22;24.50;;;14.48;;